sensor_id;sensor_type;location;lat;lon;timestamp;temperature;humidity
16655;DHT22;8441;51.344;7.022;2023-06-19T00:00:52;22.30;96.00
16655;DHT22;8441;51.344;7.022;2023-06-19T00:03:20;22.20;96.50
16655;DHT22;8441;51.344;7.022;2023-06-19T00:05:47;22.20;96.30
16655;DHT22;8441;51.344;7.022;2023-06-19T00:08:15;22.10;96.60
16655;DHT22;8441;51.344;7.022;2023-06-19T00:10:43;22.10;96.70
16655;DHT22;8441;51.344;7.022;2023-06-19T00:13:10;22.00;97.60
16655;DHT22;8441;51.344;7.022;2023-06-19T00:15:37;21.80;98.10
16655;DHT22;8441;51.344;7.022;2023-06-19T00:18:05;21.80;98.30
16655;DHT22;8441;51.344;7.022;2023-06-19T00:20:32;21.70;98.80
16655;DHT22;8441;51.344;7.022;2023-06-19T00:23:01;21.60;98.80
16655;DHT22;8441;51.344;7.022;2023-06-19T00:25:29;21.60;99.60
16655;DHT22;8441;51.344;7.022;2023-06-19T00:27:57;21.60;99.80
16655;DHT22;8441;51.344;7.022;2023-06-19T00:30:24;21.50;99.90
16655;DHT22;8441;51.344;7.022;2023-06-19T00:32:52;21.50;99.90
16655;DHT22;8441;51.344;7.022;2023-06-19T00:35:19;21.50;99.90
16655;DHT22;8441;51.344;7.022;2023-06-19T00:37:48;21.40;99.90
16655;DHT22;8441;51.344;7.022;2023-06-19T00:40:24;21.30;99.90
16655;DHT22;8441;51.344;7.022;2023-06-19T00:42:51;21.30;99.90
16655;DHT22;8441;51.344;7.022;2023-06-19T00:45:20;21.30;99.90
16655;DHT22;8441;51.344;7.022;2023-06-19T00:47:50;21.20;99.90
16655;DHT22;8441;51.344;7.022;2023-06-19T00:50:17;21.20;99.90
16655;DHT22;8441;51.344;7.022;2023-06-19T00:52:44;21.30;99.90
16655;DHT22;8441;51.344;7.022;2023-06-19T00:55:12;21.20;99.90
16655;DHT22;8441;51.344;7.022;2023-06-19T00:57:41;21.20;99.90
16655;DHT22;8441;51.344;7.022;2023-06-19T01:00:09;21.10;99.90
16655;DHT22;8441;51.344;7.022;2023-06-19T01:02:39;21.10;99.90
16655;DHT22;8441;51.344;7.022;2023-06-19T01:05:07;21.10;99.90
16655;DHT22;8441;51.344;7.022;2023-06-19T01:07:42;21.10;99.90
16655;DHT22;8441;51.344;7.022;2023-06-19T01:10:13;21.10;99.90
16655;DHT22;8441;51.344;7.022;2023-06-19T01:12:46;21.00;99.90
16655;DHT22;8441;51.344;7.022;2023-06-19T01:15:18;21.00;99.90
16655;DHT22;8441;51.344;7.022;2023-06-19T01:17:47;20.90;99.90
16655;DHT22;8441;51.344;7.022;2023-06-19T01:20:16;20.80;99.90
16655;DHT22;8441;51.344;7.022;2023-06-19T01:22:44;20.70;99.90
16655;DHT22;8441;51.344;7.022;2023-06-19T01:25:11;20.70;99.90
16655;DHT22;8441;51.344;7.022;2023-06-19T01:27:40;20.80;99.90
16655;DHT22;8441;51.344;7.022;2023-06-19T01:30:10;20.90;99.90
16655;DHT22;8441;51.344;7.022;2023-06-19T01:32:44;21.00;99.90
16655;DHT22;8441;51.344;7.022;2023-06-19T01:35:19;21.10;99.90
16655;DHT22;8441;51.344;7.022;2023-06-19T01:37:49;21.10;99.90
16655;DHT22;8441;51.344;7.022;2023-06-19T01:40:17;21.20;99.90
16655;DHT22;8441;51.344;7.022;2023-06-19T01:42:47;21.30;99.90
16655;DHT22;8441;51.344;7.022;2023-06-19T01:45:14;21.30;99.90
16655;DHT22;8441;51.344;7.022;2023-06-19T01:47:42;21.30;99.90
16655;DHT22;8441;51.344;7.022;2023-06-19T01:50:09;21.30;99.90
16655;DHT22;8441;51.344;7.022;2023-06-19T01:52:38;21.30;99.90
16655;DHT22;8441;51.344;7.022;2023-06-19T01:55:07;21.30;99.90
16655;DHT22;8441;51.344;7.022;2023-06-19T01:57:35;21.30;99.90
16655;DHT22;8441;51.344;7.022;2023-06-19T02:00:04;21.30;99.90
16655;DHT22;8441;51.344;7.022;2023-06-19T02:02:33;21.40;99.90
16655;DHT22;8441;51.344;7.022;2023-06-19T02:05:00;21.30;99.90
16655;DHT22;8441;51.344;7.022;2023-06-19T02:07:27;21.30;99.90
16655;DHT22;8441;51.344;7.022;2023-06-19T02:09:54;21.20;99.90
16655;DHT22;8441;51.344;7.022;2023-06-19T02:12:23;21.20;99.90
16655;DHT22;8441;51.344;7.022;2023-06-19T02:14:50;21.10;99.90
16655;DHT22;8441;51.344;7.022;2023-06-19T02:17:18;21.10;99.90
16655;DHT22;8441;51.344;7.022;2023-06-19T02:19:45;21.10;99.90
16655;DHT22;8441;51.344;7.022;2023-06-19T02:22:12;21.00;99.90
16655;DHT22;8441;51.344;7.022;2023-06-19T02:24:39;21.00;99.90
16655;DHT22;8441;51.344;7.022;2023-06-19T02:27:06;21.10;99.90
16655;DHT22;8441;51.344;7.022;2023-06-19T02:29:35;21.10;99.90
16655;DHT22;8441;51.344;7.022;2023-06-19T02:32:03;21.20;99.90
16655;DHT22;8441;51.344;7.022;2023-06-19T02:34:30;21.30;99.90
16655;DHT22;8441;51.344;7.022;2023-06-19T02:36:58;21.40;99.90
16655;DHT22;8441;51.344;7.022;2023-06-19T02:39:25;21.40;99.90
16655;DHT22;8441;51.344;7.022;2023-06-19T02:41:52;21.50;99.90
16655;DHT22;8441;51.344;7.022;2023-06-19T02:44:19;21.50;99.90
16655;DHT22;8441;51.344;7.022;2023-06-19T02:46:48;21.60;99.90
16655;DHT22;8441;51.344;7.022;2023-06-19T02:49:15;21.70;99.90
16655;DHT22;8441;51.344;7.022;2023-06-19T02:51:42;21.70;99.90
16655;DHT22;8441;51.344;7.022;2023-06-19T02:54:09;21.70;99.90
16655;DHT22;8441;51.344;7.022;2023-06-19T02:56:38;21.70;99.90
16655;DHT22;8441;51.344;7.022;2023-06-19T02:59:05;21.60;99.90
16655;DHT22;8441;51.344;7.022;2023-06-19T03:01:32;21.60;99.90
16655;DHT22;8441;51.344;7.022;2023-06-19T03:04:01;21.60;99.90
16655;DHT22;8441;51.344;7.022;2023-06-19T03:06:28;21.50;99.90
16655;DHT22;8441;51.344;7.022;2023-06-19T03:08:56;21.50;99.90
16655;DHT22;8441;51.344;7.022;2023-06-19T03:11:25;21.40;99.90
16655;DHT22;8441;51.344;7.022;2023-06-19T03:13:53;21.40;99.90
16655;DHT22;8441;51.344;7.022;2023-06-19T03:16:20;21.40;99.90
16655;DHT22;8441;51.344;7.022;2023-06-19T03:18:48;21.30;99.90
16655;DHT22;8441;51.344;7.022;2023-06-19T03:21:17;21.20;99.90
16655;DHT22;8441;51.344;7.022;2023-06-19T03:23:45;21.20;99.90
16655;DHT22;8441;51.344;7.022;2023-06-19T03:26:12;21.20;99.90
16655;DHT22;8441;51.344;7.022;2023-06-19T03:28:39;21.20;99.90
16655;DHT22;8441;51.344;7.022;2023-06-19T03:31:06;21.10;99.90
16655;DHT22;8441;51.344;7.022;2023-06-19T03:33:33;21.10;99.90
16655;DHT22;8441;51.344;7.022;2023-06-19T03:36:01;21.00;99.90
16655;DHT22;8441;51.344;7.022;2023-06-19T03:38:30;20.90;99.90
16655;DHT22;8441;51.344;7.022;2023-06-19T03:40:57;20.90;99.90
16655;DHT22;8441;51.344;7.022;2023-06-19T03:43:24;20.80;99.90
16655;DHT22;8441;51.344;7.022;2023-06-19T03:45:51;20.70;99.90
16655;DHT22;8441;51.344;7.022;2023-06-19T03:48:19;20.70;99.90
16655;DHT22;8441;51.344;7.022;2023-06-19T03:50:46;20.70;99.90
16655;DHT22;8441;51.344;7.022;2023-06-19T03:53:13;20.60;99.90
16655;DHT22;8441;51.344;7.022;2023-06-19T03:55:42;20.60;99.90
16655;DHT22;8441;51.344;7.022;2023-06-19T03:58:10;20.60;99.90
16655;DHT22;8441;51.344;7.022;2023-06-19T04:00:37;20.60;99.90
16655;DHT22;8441;51.344;7.022;2023-06-19T04:03:04;20.60;99.90
16655;DHT22;8441;51.344;7.022;2023-06-19T04:05:31;20.60;99.90
16655;DHT22;8441;51.344;7.022;2023-06-19T04:07:58;20.60;99.90
16655;DHT22;8441;51.344;7.022;2023-06-19T04:10:26;20.70;99.90
16655;DHT22;8441;51.344;7.022;2023-06-19T04:12:54;20.70;99.90
16655;DHT22;8441;51.344;7.022;2023-06-19T04:15:21;20.70;99.90
16655;DHT22;8441;51.344;7.022;2023-06-19T04:17:49;20.70;99.90
16655;DHT22;8441;51.344;7.022;2023-06-19T04:20:16;20.70;99.90
16655;DHT22;8441;51.344;7.022;2023-06-19T04:22:43;20.80;99.90
16655;DHT22;8441;51.344;7.022;2023-06-19T04:25:11;20.90;99.90
16655;DHT22;8441;51.344;7.022;2023-06-19T04:27:38;20.90;99.90
16655;DHT22;8441;51.344;7.022;2023-06-19T04:30:07;21.00;99.90
16655;DHT22;8441;51.344;7.022;2023-06-19T04:32:35;21.00;99.90
16655;DHT22;8441;51.344;7.022;2023-06-19T04:35:02;20.90;99.90
16655;DHT22;8441;51.344;7.022;2023-06-19T04:37:30;20.90;99.90
16655;DHT22;8441;51.344;7.022;2023-06-19T04:39:57;21.00;99.90
16655;DHT22;8441;51.344;7.022;2023-06-19T04:42:25;20.90;99.90
16655;DHT22;8441;51.344;7.022;2023-06-19T04:44:52;21.00;99.90
16655;DHT22;8441;51.344;7.022;2023-06-19T04:47:23;20.90;99.90
16655;DHT22;8441;51.344;7.022;2023-06-19T04:49:50;20.90;99.90
16655;DHT22;8441;51.344;7.022;2023-06-19T04:52:17;20.80;99.90
16655;DHT22;8441;51.344;7.022;2023-06-19T04:54:45;20.80;99.90
16655;DHT22;8441;51.344;7.022;2023-06-19T04:57:14;20.70;99.90
16655;DHT22;8441;51.344;7.022;2023-06-19T04:59:42;20.80;99.90
16655;DHT22;8441;51.344;7.022;2023-06-19T05:02:09;21.10;99.90
16655;DHT22;8441;51.344;7.022;2023-06-19T05:04:38;21.10;99.90
16655;DHT22;8441;51.344;7.022;2023-06-19T05:07:08;21.30;99.90
16655;DHT22;8441;51.344;7.022;2023-06-19T05:09:38;21.50;99.90
16655;DHT22;8441;51.344;7.022;2023-06-19T05:12:06;21.60;99.90
16655;DHT22;8441;51.344;7.022;2023-06-19T05:14:33;21.60;99.90
16655;DHT22;8441;51.344;7.022;2023-06-19T05:17:00;21.70;99.90
16655;DHT22;8441;51.344;7.022;2023-06-19T05:19:27;21.70;99.90
16655;DHT22;8441;51.344;7.022;2023-06-19T05:21:56;21.70;99.90
16655;DHT22;8441;51.344;7.022;2023-06-19T05:24:23;21.60;99.90
16655;DHT22;8441;51.344;7.022;2023-06-19T05:26:50;21.60;99.90
16655;DHT22;8441;51.344;7.022;2023-06-19T05:29:18;21.40;99.90
16655;DHT22;8441;51.344;7.022;2023-06-19T05:31:45;21.40;99.90
16655;DHT22;8441;51.344;7.022;2023-06-19T05:34:12;21.30;99.90
16655;DHT22;8441;51.344;7.022;2023-06-19T05:36:39;21.20;99.90
16655;DHT22;8441;51.344;7.022;2023-06-19T05:39:08;21.20;99.90
16655;DHT22;8441;51.344;7.022;2023-06-19T05:41:35;21.20;99.90
16655;DHT22;8441;51.344;7.022;2023-06-19T05:44:03;21.10;99.90
16655;DHT22;8441;51.344;7.022;2023-06-19T05:46:30;21.20;99.90
16655;DHT22;8441;51.344;7.022;2023-06-19T05:48:57;21.20;99.90
16655;DHT22;8441;51.344;7.022;2023-06-19T05:51:24;21.30;99.90
16655;DHT22;8441;51.344;7.022;2023-06-19T05:53:51;21.40;99.90
16655;DHT22;8441;51.344;7.022;2023-06-19T05:56:20;21.50;99.90
16655;DHT22;8441;51.344;7.022;2023-06-19T05:58:47;21.60;99.90
16655;DHT22;8441;51.344;7.022;2023-06-19T06:01:14;21.60;99.90
16655;DHT22;8441;51.344;7.022;2023-06-19T06:03:43;21.70;99.90
16655;DHT22;8441;51.344;7.022;2023-06-19T06:06:11;21.80;99.90
16655;DHT22;8441;51.344;7.022;2023-06-19T06:08:38;21.90;99.90
16655;DHT22;8441;51.344;7.022;2023-06-19T06:11:05;22.10;99.90
16655;DHT22;8441;51.344;7.022;2023-06-19T06:13:34;22.00;99.90
16655;DHT22;8441;51.344;7.022;2023-06-19T06:16:01;22.00;99.90
16655;DHT22;8441;51.344;7.022;2023-06-19T06:18:28;22.00;99.90
16655;DHT22;8441;51.344;7.022;2023-06-19T06:20:55;22.00;99.90
16655;DHT22;8441;51.344;7.022;2023-06-19T06:23:24;22.10;99.90
16655;DHT22;8441;51.344;7.022;2023-06-19T06:25:51;22.20;99.90
16655;DHT22;8441;51.344;7.022;2023-06-19T06:28:20;22.40;99.90
16655;DHT22;8441;51.344;7.022;2023-06-19T06:30:49;22.60;99.90
16655;DHT22;8441;51.344;7.022;2023-06-19T06:33:16;22.80;99.90
16655;DHT22;8441;51.344;7.022;2023-06-19T06:35:43;22.80;99.90
16655;DHT22;8441;51.344;7.022;2023-06-19T06:38:11;22.80;99.90
16655;DHT22;8441;51.344;7.022;2023-06-19T06:40:38;22.80;99.90
16655;DHT22;8441;51.344;7.022;2023-06-19T06:43:07;22.90;99.90
16655;DHT22;8441;51.344;7.022;2023-06-19T06:45:34;23.00;99.90
16655;DHT22;8441;51.344;7.022;2023-06-19T06:48:05;23.00;99.90
16655;DHT22;8441;51.344;7.022;2023-06-19T06:50:32;23.10;99.90
16655;DHT22;8441;51.344;7.022;2023-06-19T06:53:00;23.00;99.90
16655;DHT22;8441;51.344;7.022;2023-06-19T06:55:27;22.90;99.90
16655;DHT22;8441;51.344;7.022;2023-06-19T06:57:54;22.90;99.90
16655;DHT22;8441;51.344;7.022;2023-06-19T07:00:22;22.60;99.90
16655;DHT22;8441;51.344;7.022;2023-06-19T07:02:49;22.60;99.90
16655;DHT22;8441;51.344;7.022;2023-06-19T07:05:18;22.40;99.90
16655;DHT22;8441;51.344;7.022;2023-06-19T07:07:46;22.30;99.90
16655;DHT22;8441;51.344;7.022;2023-06-19T07:10:13;22.20;99.90
16655;DHT22;8441;51.344;7.022;2023-06-19T07:12:47;22.30;99.90
16655;DHT22;8441;51.344;7.022;2023-06-19T07:15:14;22.40;99.90
16655;DHT22;8441;51.344;7.022;2023-06-19T07:17:41;22.30;99.90
16655;DHT22;8441;51.344;7.022;2023-06-19T07:20:09;22.20;99.90
16655;DHT22;8441;51.344;7.022;2023-06-19T07:22:38;22.00;99.90
16655;DHT22;8441;51.344;7.022;2023-06-19T07:25:06;21.70;99.90
16655;DHT22;8441;51.344;7.022;2023-06-19T07:27:34;21.50;99.90
16655;DHT22;8441;51.344;7.022;2023-06-19T07:30:01;21.40;99.90
16655;DHT22;8441;51.344;7.022;2023-06-19T07:32:28;21.50;99.90
16655;DHT22;8441;51.344;7.022;2023-06-19T07:34:55;21.50;99.90
16655;DHT22;8441;51.344;7.022;2023-06-19T07:37:23;21.40;99.90
16655;DHT22;8441;51.344;7.022;2023-06-19T07:39:52;21.40;99.90
16655;DHT22;8441;51.344;7.022;2023-06-19T07:42:19;21.30;99.90
16655;DHT22;8441;51.344;7.022;2023-06-19T07:44:47;21.40;99.90
16655;DHT22;8441;51.344;7.022;2023-06-19T07:47:16;21.70;99.90
16655;DHT22;8441;51.344;7.022;2023-06-19T07:49:43;21.90;99.90
16655;DHT22;8441;51.344;7.022;2023-06-19T07:52:11;22.10;99.90
16655;DHT22;8441;51.344;7.022;2023-06-19T07:54:51;22.30;99.90
16655;DHT22;8441;51.344;7.022;2023-06-19T07:57:19;22.40;99.90
16655;DHT22;8441;51.344;7.022;2023-06-19T07:59:46;22.70;99.90
16655;DHT22;8441;51.344;7.022;2023-06-19T08:02:14;22.80;99.90
16655;DHT22;8441;51.344;7.022;2023-06-19T08:04:41;22.90;99.90
16655;DHT22;8441;51.344;7.022;2023-06-19T08:07:08;22.80;99.90
16655;DHT22;8441;51.344;7.022;2023-06-19T08:09:36;22.50;99.90
16655;DHT22;8441;51.344;7.022;2023-06-19T08:12:05;22.20;99.90
16655;DHT22;8441;51.344;7.022;2023-06-19T08:14:32;21.80;99.90
16655;DHT22;8441;51.344;7.022;2023-06-19T08:16:59;21.60;99.90
16655;DHT22;8441;51.344;7.022;2023-06-19T08:19:26;21.50;99.90
16655;DHT22;8441;51.344;7.022;2023-06-19T08:21:53;21.50;99.90
16655;DHT22;8441;51.344;7.022;2023-06-19T08:24:20;21.60;99.90
16655;DHT22;8441;51.344;7.022;2023-06-19T08:26:47;21.60;99.90
16655;DHT22;8441;51.344;7.022;2023-06-19T08:29:18;21.70;99.90
16655;DHT22;8441;51.344;7.022;2023-06-19T08:31:45;22.00;99.90
16655;DHT22;8441;51.344;7.022;2023-06-19T08:34:12;22.40;99.90
16655;DHT22;8441;51.344;7.022;2023-06-19T08:36:40;22.60;99.90
16655;DHT22;8441;51.344;7.022;2023-06-19T08:39:07;22.90;99.90
16655;DHT22;8441;51.344;7.022;2023-06-19T08:41:35;23.00;99.90
16655;DHT22;8441;51.344;7.022;2023-06-19T08:44:03;23.00;99.90
16655;DHT22;8441;51.344;7.022;2023-06-19T08:46:32;23.40;99.90
16655;DHT22;8441;51.344;7.022;2023-06-19T08:49:00;23.60;99.90
16655;DHT22;8441;51.344;7.022;2023-06-19T08:51:27;23.90;99.90
16655;DHT22;8441;51.344;7.022;2023-06-19T08:53:59;24.10;99.90
16655;DHT22;8441;51.344;7.022;2023-06-19T08:56:27;24.20;99.90
16655;DHT22;8441;51.344;7.022;2023-06-19T08:58:54;24.50;99.90
16655;DHT22;8441;51.344;7.022;2023-06-19T09:01:21;24.50;99.90
16655;DHT22;8441;51.344;7.022;2023-06-19T09:03:53;24.50;99.90
16655;DHT22;8441;51.344;7.022;2023-06-19T09:06:21;24.80;99.90
16655;DHT22;8441;51.344;7.022;2023-06-19T09:08:58;24.80;99.90
16655;DHT22;8441;51.344;7.022;2023-06-19T09:11:25;25.00;99.90
16655;DHT22;8441;51.344;7.022;2023-06-19T09:13:56;25.20;99.90
16655;DHT22;8441;51.344;7.022;2023-06-19T09:16:37;25.60;99.90
16655;DHT22;8441;51.344;7.022;2023-06-19T09:19:06;26.10;99.90
16655;DHT22;8441;51.344;7.022;2023-06-19T09:21:36;26.60;99.90
16655;DHT22;8441;51.344;7.022;2023-06-19T09:24:05;26.70;99.90
16655;DHT22;8441;51.344;7.022;2023-06-19T09:26:33;26.60;99.90
16655;DHT22;8441;51.344;7.022;2023-06-19T09:29:11;26.50;99.90
16655;DHT22;8441;51.344;7.022;2023-06-19T09:31:38;26.10;99.90
16655;DHT22;8441;51.344;7.022;2023-06-19T09:34:08;25.90;99.90
16655;DHT22;8441;51.344;7.022;2023-06-19T09:36:36;25.90;99.90
16655;DHT22;8441;51.344;7.022;2023-06-19T09:39:03;25.90;99.90
16655;DHT22;8441;51.344;7.022;2023-06-19T09:41:31;26.20;99.90
16655;DHT22;8441;51.344;7.022;2023-06-19T09:43:59;26.20;99.90
16655;DHT22;8441;51.344;7.022;2023-06-19T09:46:30;26.40;99.90
16655;DHT22;8441;51.344;7.022;2023-06-19T09:49:01;26.40;99.90
16655;DHT22;8441;51.344;7.022;2023-06-19T09:51:33;26.40;99.90
16655;DHT22;8441;51.344;7.022;2023-06-19T09:54:05;26.60;99.90
16655;DHT22;8441;51.344;7.022;2023-06-19T09:56:33;26.50;99.90
16655;DHT22;8441;51.344;7.022;2023-06-19T09:59:01;26.40;99.90
16655;DHT22;8441;51.344;7.022;2023-06-19T10:01:30;26.20;99.90
16655;DHT22;8441;51.344;7.022;2023-06-19T10:04:05;25.90;99.90
16655;DHT22;8441;51.344;7.022;2023-06-19T10:06:43;25.90;99.90
16655;DHT22;8441;51.344;7.022;2023-06-19T10:09:11;26.20;99.90
16655;DHT22;8441;51.344;7.022;2023-06-19T10:11:48;26.30;99.90
16655;DHT22;8441;51.344;7.022;2023-06-19T10:14:16;26.80;99.90
16655;DHT22;8441;51.344;7.022;2023-06-19T10:16:45;26.90;99.90
16655;DHT22;8441;51.344;7.022;2023-06-19T10:19:14;27.20;99.90
16655;DHT22;8441;51.344;7.022;2023-06-19T10:21:48;27.10;99.90
16655;DHT22;8441;51.344;7.022;2023-06-19T10:24:16;27.00;99.90
16655;DHT22;8441;51.344;7.022;2023-06-19T10:26:56;26.90;99.90
16655;DHT22;8441;51.344;7.022;2023-06-19T10:29:24;27.00;99.90
16655;DHT22;8441;51.344;7.022;2023-06-19T10:31:53;27.00;99.90
16655;DHT22;8441;51.344;7.022;2023-06-19T10:34:22;27.10;99.90
16655;DHT22;8441;51.344;7.022;2023-06-19T10:37:00;27.10;99.90
16655;DHT22;8441;51.344;7.022;2023-06-19T10:39:28;26.90;99.90
16655;DHT22;8441;51.344;7.022;2023-06-19T10:41:55;27.10;99.90
16655;DHT22;8441;51.344;7.022;2023-06-19T10:44:23;27.50;99.10
16655;DHT22;8441;51.344;7.022;2023-06-19T10:46:53;27.70;98.30
16655;DHT22;8441;51.344;7.022;2023-06-19T10:49:21;27.70;98.70
16655;DHT22;8441;51.344;7.022;2023-06-19T10:51:48;27.80;98.40
16655;DHT22;8441;51.344;7.022;2023-06-19T10:54:17;27.80;97.80
16655;DHT22;8441;51.344;7.022;2023-06-19T10:56:44;27.90;98.40
16655;DHT22;8441;51.344;7.022;2023-06-19T10:59:14;28.10;98.50
16655;DHT22;8441;51.344;7.022;2023-06-19T11:01:44;28.20;98.20
16655;DHT22;8441;51.344;7.022;2023-06-19T11:04:13;28.10;97.50
16655;DHT22;8441;51.344;7.022;2023-06-19T11:06:42;27.90;97.50
16655;DHT22;8441;51.344;7.022;2023-06-19T11:09:11;27.40;97.70
16655;DHT22;8441;51.344;7.022;2023-06-19T11:11:41;27.40;98.00
16655;DHT22;8441;51.344;7.022;2023-06-19T11:14:11;27.40;97.50
16655;DHT22;8441;51.344;7.022;2023-06-19T11:16:41;27.50;97.90
16655;DHT22;8441;51.344;7.022;2023-06-19T11:19:09;27.60;98.20
16655;DHT22;8441;51.344;7.022;2023-06-19T11:21:37;27.70;96.90
16655;DHT22;8441;51.344;7.022;2023-06-19T11:24:06;28.00;96.30
16655;DHT22;8441;51.344;7.022;2023-06-19T11:26:39;28.10;95.70
16655;DHT22;8441;51.344;7.022;2023-06-19T11:29:16;28.00;95.60
16655;DHT22;8441;51.344;7.022;2023-06-19T11:31:45;28.00;95.30
16655;DHT22;8441;51.344;7.022;2023-06-19T11:34:13;27.90;95.70
16655;DHT22;8441;51.344;7.022;2023-06-19T11:36:41;28.20;95.50
16655;DHT22;8441;51.344;7.022;2023-06-19T11:39:11;28.10;94.80
16655;DHT22;8441;51.344;7.022;2023-06-19T11:41:40;28.00;94.50
16655;DHT22;8441;51.344;7.022;2023-06-19T11:44:08;28.20;94.80
16655;DHT22;8441;51.344;7.022;2023-06-19T11:46:36;28.30;94.50
16655;DHT22;8441;51.344;7.022;2023-06-19T11:49:11;28.20;95.40
16655;DHT22;8441;51.344;7.022;2023-06-19T11:51:39;28.40;94.60
16655;DHT22;8441;51.344;7.022;2023-06-19T11:54:08;28.30;94.80
16655;DHT22;8441;51.344;7.022;2023-06-19T11:56:35;28.50;94.90
16655;DHT22;8441;51.344;7.022;2023-06-19T11:59:04;28.50;95.00
16655;DHT22;8441;51.344;7.022;2023-06-19T12:01:32;28.60;94.70
16655;DHT22;8441;51.344;7.022;2023-06-19T12:04:00;28.70;94.70
16655;DHT22;8441;51.344;7.022;2023-06-19T12:06:28;28.80;93.80
16655;DHT22;8441;51.344;7.022;2023-06-19T12:08:55;28.70;94.00
16655;DHT22;8441;51.344;7.022;2023-06-19T12:11:22;28.60;93.90
16655;DHT22;8441;51.344;7.022;2023-06-19T12:13:50;28.80;93.50
16655;DHT22;8441;51.344;7.022;2023-06-19T12:16:20;28.90;93.20
16655;DHT22;8441;51.344;7.022;2023-06-19T12:18:47;28.90;92.70
16655;DHT22;8441;51.344;7.022;2023-06-19T12:21:15;29.00;93.00
16655;DHT22;8441;51.344;7.022;2023-06-19T12:23:42;29.10;92.90
16655;DHT22;8441;51.344;7.022;2023-06-19T12:26:09;29.10;92.90
16655;DHT22;8441;51.344;7.022;2023-06-19T12:28:36;29.00;93.00
16655;DHT22;8441;51.344;7.022;2023-06-19T12:31:04;29.10;92.70
16655;DHT22;8441;51.344;7.022;2023-06-19T12:33:32;29.50;91.80
16655;DHT22;8441;51.344;7.022;2023-06-19T12:36:00;29.70;92.00
16655;DHT22;8441;51.344;7.022;2023-06-19T12:38:27;29.60;92.20
16655;DHT22;8441;51.344;7.022;2023-06-19T12:40:54;29.70;92.30
16655;DHT22;8441;51.344;7.022;2023-06-19T12:43:21;29.40;92.00
16655;DHT22;8441;51.344;7.022;2023-06-19T12:45:49;29.20;91.20
16655;DHT22;8441;51.344;7.022;2023-06-19T12:48:16;29.00;92.40
16655;DHT22;8441;51.344;7.022;2023-06-19T12:50:45;29.30;91.30
16655;DHT22;8441;51.344;7.022;2023-06-19T12:53:12;29.40;91.30
16655;DHT22;8441;51.344;7.022;2023-06-19T12:55:39;29.50;90.30
16655;DHT22;8441;51.344;7.022;2023-06-19T12:58:06;29.40;91.10
16655;DHT22;8441;51.344;7.022;2023-06-19T13:00:33;29.40;90.60
16655;DHT22;8441;51.344;7.022;2023-06-19T13:03:00;29.40;91.00
16655;DHT22;8441;51.344;7.022;2023-06-19T13:05:27;29.60;90.80
16655;DHT22;8441;51.344;7.022;2023-06-19T13:07:56;29.70;91.20
16655;DHT22;8441;51.344;7.022;2023-06-19T13:10:23;29.90;90.90
16655;DHT22;8441;51.344;7.022;2023-06-19T13:12:50;30.10;90.50
16655;DHT22;8441;51.344;7.022;2023-06-19T13:15:18;30.10;90.30
16655;DHT22;8441;51.344;7.022;2023-06-19T13:17:49;29.80;90.50
16655;DHT22;8441;51.344;7.022;2023-06-19T13:20:23;29.90;90.90
16655;DHT22;8441;51.344;7.022;2023-06-19T13:23:04;29.90;90.60
16655;DHT22;8441;51.344;7.022;2023-06-19T13:25:40;30.10;90.40
16655;DHT22;8441;51.344;7.022;2023-06-19T13:28:07;29.90;89.50
16655;DHT22;8441;51.344;7.022;2023-06-19T13:30:34;29.60;89.40
16655;DHT22;8441;51.344;7.022;2023-06-19T13:33:02;29.50;89.90
16655;DHT22;8441;51.344;7.022;2023-06-19T13:35:29;29.70;90.40
16655;DHT22;8441;51.344;7.022;2023-06-19T13:37:56;29.90;87.50
16655;DHT22;8441;51.344;7.022;2023-06-19T13:40:26;29.80;89.30
16655;DHT22;8441;51.344;7.022;2023-06-19T13:42:53;29.70;88.70
16655;DHT22;8441;51.344;7.022;2023-06-19T13:45:21;29.60;88.80
16655;DHT22;8441;51.344;7.022;2023-06-19T13:47:48;29.30;87.90
16655;DHT22;8441;51.344;7.022;2023-06-19T13:50:15;28.70;89.70
16655;DHT22;8441;51.344;7.022;2023-06-19T13:52:44;28.60;88.60
16655;DHT22;8441;51.344;7.022;2023-06-19T13:55:11;28.80;89.40
16655;DHT22;8441;51.344;7.022;2023-06-19T13:57:40;28.90;89.80
16655;DHT22;8441;51.344;7.022;2023-06-19T14:00:11;29.30;89.00
16655;DHT22;8441;51.344;7.022;2023-06-19T14:02:39;29.40;87.80
16655;DHT22;8441;51.344;7.022;2023-06-19T14:05:07;29.30;86.30
16655;DHT22;8441;51.344;7.022;2023-06-19T14:07:35;29.10;88.00
16655;DHT22;8441;51.344;7.022;2023-06-19T14:10:04;28.80;88.10
16655;DHT22;8441;51.344;7.022;2023-06-19T14:12:31;28.80;89.00
16655;DHT22;8441;51.344;7.022;2023-06-19T14:15:00;28.90;88.60
16655;DHT22;8441;51.344;7.022;2023-06-19T14:17:27;29.10;89.70
16655;DHT22;8441;51.344;7.022;2023-06-19T14:19:55;29.20;90.10
16655;DHT22;8441;51.344;7.022;2023-06-19T14:22:22;29.50;90.30
16655;DHT22;8441;51.344;7.022;2023-06-19T14:24:49;29.30;88.40
16655;DHT22;8441;51.344;7.022;2023-06-19T14:27:19;29.30;89.40
16655;DHT22;8441;51.344;7.022;2023-06-19T14:29:46;29.60;89.30
16655;DHT22;8441;51.344;7.022;2023-06-19T14:32:14;30.00;86.40
16655;DHT22;8441;51.344;7.022;2023-06-19T14:34:42;30.20;84.10
16655;DHT22;8441;51.344;7.022;2023-06-19T14:37:09;30.40;85.10
16655;DHT22;8441;51.344;7.022;2023-06-19T14:39:36;30.50;84.10
16655;DHT22;8441;51.344;7.022;2023-06-19T14:42:04;30.40;83.60
16655;DHT22;8441;51.344;7.022;2023-06-19T14:44:31;30.50;83.90
16655;DHT22;8441;51.344;7.022;2023-06-19T14:46:59;30.50;83.80
16655;DHT22;8441;51.344;7.022;2023-06-19T14:49:28;30.50;83.20
16655;DHT22;8441;51.344;7.022;2023-06-19T14:51:55;30.30;82.50
16655;DHT22;8441;51.344;7.022;2023-06-19T14:54:23;30.40;82.30
16655;DHT22;8441;51.344;7.022;2023-06-19T14:56:50;30.40;82.10
16655;DHT22;8441;51.344;7.022;2023-06-19T14:59:17;30.30;82.00
16655;DHT22;8441;51.344;7.022;2023-06-19T15:01:45;30.00;81.50
16655;DHT22;8441;51.344;7.022;2023-06-19T15:04:12;30.00;83.10
16655;DHT22;8441;51.344;7.022;2023-06-19T15:06:40;29.90;82.20
16655;DHT22;8441;51.344;7.022;2023-06-19T15:09:08;29.90;82.30
16655;DHT22;8441;51.344;7.022;2023-06-19T15:11:35;29.70;81.90
16655;DHT22;8441;51.344;7.022;2023-06-19T15:14:02;29.80;82.30
16655;DHT22;8441;51.344;7.022;2023-06-19T15:16:30;29.70;82.30
16655;DHT22;8441;51.344;7.022;2023-06-19T15:18:57;29.50;82.10
16655;DHT22;8441;51.344;7.022;2023-06-19T15:21:24;29.50;83.30
16655;DHT22;8441;51.344;7.022;2023-06-19T15:23:54;29.40;81.50
16655;DHT22;8441;51.344;7.022;2023-06-19T15:26:22;29.40;82.10
16655;DHT22;8441;51.344;7.022;2023-06-19T15:28:49;29.70;84.00
16655;DHT22;8441;51.344;7.022;2023-06-19T15:31:20;29.80;81.80
16655;DHT22;8441;51.344;7.022;2023-06-19T15:33:47;29.80;82.10
16655;DHT22;8441;51.344;7.022;2023-06-19T15:36:14;30.10;80.30
16655;DHT22;8441;51.344;7.022;2023-06-19T15:38:42;30.00;81.30
16655;DHT22;8441;51.344;7.022;2023-06-19T15:41:11;29.80;81.50
16655;DHT22;8441;51.344;7.022;2023-06-19T15:43:39;29.70;80.10
16655;DHT22;8441;51.344;7.022;2023-06-19T15:46:06;29.70;79.90
16655;DHT22;8441;51.344;7.022;2023-06-19T15:48:34;29.50;81.40
16655;DHT22;8441;51.344;7.022;2023-06-19T15:51:02;29.60;80.80